createdAt,value
2023-02-11T00:00:12.789Z,149621.28
2023-02-11T00:02:38.678Z,149608.66
2023-02-11T00:05:04.957Z,149589.78
2023-02-11T00:07:32.461Z,149587.28
2023-02-11T00:09:58.485Z,149569.66
2023-02-11T00:12:24.914Z,149569.66
2023-02-11T00:14:51.019Z,149597.38
2023-02-11T00:17:17.170Z,149598.63
2023-02-11T00:19:43.045Z,149592.34
2023-02-11T00:22:08.876Z,149599.88
2023-02-11T00:24:36.162Z,149583.50
2023-02-11T00:27:02.194Z,149579.75
2023-02-11T00:29:28.067Z,149589.78
2023-02-11T00:31:53.990Z,149559.63
2023-02-11T00:34:19.852Z,149549.53
2023-02-11T00:36:45.714Z,149572.16
2023-02-11T00:39:11.583Z,149558.38
2023-02-11T00:41:37.458Z,149525.63
2023-02-11T00:44:03.515Z,149542.00
2023-02-11T00:46:29.479Z,149496.66
2023-02-11T00:48:57.037Z,149528.13
2023-02-11T00:51:27.740Z,149524.38
2023-02-11T00:53:53.732Z,149514.28
2023-02-11T00:56:20.473Z,149582.25
2023-02-11T00:58:46.419Z,149545.75
2023-02-11T01:01:13.273Z,149564.63
2023-02-11T01:03:39.687Z,149509.28
2023-02-11T01:06:08.347Z,149513.03
2023-02-11T01:08:34.418Z,149500.44
2023-02-11T01:11:03.398Z,149550.78
2023-02-11T01:13:30.950Z,149504.25
2023-02-11T01:15:57.342Z,149495.41
2023-02-11T01:18:23.826Z,149485.38
2023-02-11T01:20:51.431Z,149482.81
2023-02-11T01:23:17.600Z,149504.25
2023-02-11T01:25:44.026Z,149501.69
2023-02-11T01:28:18.051Z,149509.28
2023-02-11T01:30:44.367Z,149487.88
2023-02-11T01:33:12.110Z,149513.03
2023-02-11T01:35:39.344Z,149510.53
2023-02-11T01:38:07.211Z,149472.78
2023-02-11T01:40:34.265Z,149465.19
2023-02-11T01:43:00.363Z,149504.25
2023-02-11T01:45:41.865Z,149477.78
2023-02-11T01:48:11.326Z,149496.66
2023-02-11T01:50:39.351Z,149504.25
2023-02-11T01:53:24.228Z,149495.41
2023-02-11T01:56:12.394Z,149490.41
2023-02-11T01:58:42.044Z,149470.28
2023-02-11T02:01:12.508Z,149489.16
2023-02-11T02:03:41.810Z,149471.53
2023-02-11T02:06:16.016Z,149513.03
2023-02-11T02:08:51.748Z,149491.66
2023-02-11T02:11:17.591Z,149509.28
2023-02-11T02:13:44.108Z,149518.06
2023-02-11T02:16:16.148Z,149552.03
2023-02-11T02:18:53.634Z,149496.66
2023-02-11T02:21:28.492Z,149487.88
2023-02-11T02:24:27.041Z,149479.06
2023-02-11T02:26:58.520Z,149514.28
2023-02-11T02:29:59.946Z,149530.66
2023-02-11T02:32:37.853Z,149521.88
2023-02-11T02:35:25.892Z,149545.75
2023-02-11T02:38:22.567Z,149552.03
2023-02-11T02:40:58.264Z,149573.44
2023-02-11T02:43:26.246Z,149560.88
2023-02-11T02:45:52.941Z,149557.09
2023-02-11T02:48:34.118Z,149560.88
2023-02-11T02:51:08.255Z,149516.81
2023-02-11T02:53:58.830Z,149510.53
2023-02-11T02:56:33.578Z,149520.63
2023-02-11T02:59:14.353Z,149489.16
2023-02-11T03:02:04.719Z,149497.94
2023-02-11T03:04:43.669Z,149526.88
2023-02-11T03:07:24.456Z,149529.41
2023-02-11T03:10:08.533Z,149531.91
2023-02-11T03:12:36.585Z,149492.91
2023-02-11T03:15:06.146Z,149500.44
2023-02-11T03:17:34.320Z,149520.63
2023-02-11T03:20:03.953Z,149480.31
2023-02-11T03:22:40.312Z,149509.28
2023-02-11T03:25:06.856Z,149521.88
2023-02-11T03:27:40.696Z,149528.13
2023-02-11T03:30:17.722Z,149534.41
2023-02-11T03:32:50.639Z,149521.88
2023-02-11T03:35:27.321Z,149519.31
2023-02-11T03:38:09.900Z,149533.16
2023-02-11T03:40:38.058Z,149520.63
2023-02-11T03:43:19.127Z,149536.94
2023-02-11T03:45:48.580Z,149539.47
2023-02-11T03:48:19.708Z,149516.81
2023-02-11T03:50:47.683Z,149549.53
2023-02-11T03:53:15.221Z,149526.88
2023-02-11T03:55:43.473Z,149514.28
2023-02-11T03:58:09.583Z,149470.28
2023-02-11T04:00:38.870Z,149455.16
2023-02-11T04:03:05.490Z,149453.91
2023-02-11T04:05:32.019Z,149437.53
2023-02-11T04:07:57.850Z,149479.06
2023-02-11T04:10:23.756Z,149475.28
2023-02-11T04:12:49.519Z,149462.69
2023-02-11T04:15:15.548Z,149448.88
2023-02-11T04:17:41.347Z,149452.66
2023-02-11T04:20:07.859Z,149455.16
2023-02-11T04:22:33.758Z,149477.78
2023-02-11T04:24:59.600Z,149448.88
2023-02-11T04:27:25.452Z,149438.81
2023-02-11T04:29:51.281Z,149462.69
2023-02-11T04:32:17.107Z,149438.81
2023-02-11T04:34:43.056Z,149441.31
2023-02-11T04:37:08.961Z,149448.88
2023-02-11T04:39:34.767Z,149452.66
2023-02-11T04:42:00.619Z,149433.78
2023-02-11T04:44:26.397Z,149445.06
2023-02-11T04:46:52.436Z,149424.94
2023-02-11T04:49:18.285Z,149448.88
2023-02-11T04:51:44.458Z,149432.53
2023-02-11T04:54:11.151Z,149428.72
2023-02-11T04:56:37.382Z,149427.47
2023-02-11T04:59:04.150Z,149414.91
2023-02-11T05:01:30.077Z,149417.44
2023-02-11T05:03:57.029Z,149443.81
2023-02-11T05:06:23.307Z,149429.97
2023-02-11T05:08:49.324Z,149437.53
2023-02-11T05:11:18.692Z,149438.81
2023-02-11T05:13:44.997Z,149426.22
2023-02-11T05:16:11.209Z,149438.81
2023-02-11T05:18:38.335Z,149428.72
2023-02-11T05:21:08.763Z,149416.16
2023-02-11T05:23:35.951Z,149433.78
2023-02-11T05:26:02.999Z,149435.03
2023-02-11T05:28:28.985Z,149428.72
2023-02-11T05:30:55.294Z,149403.56
2023-02-11T05:33:21.184Z,149407.34
2023-02-11T05:35:46.938Z,149396.06
2023-02-11T05:38:12.870Z,149403.56
2023-02-11T05:40:38.642Z,149418.69
2023-02-11T05:43:04.470Z,149387.22
2023-02-11T05:45:30.297Z,149388.47
2023-02-11T05:47:56.978Z,149409.84
2023-02-11T05:50:23.182Z,149413.66
2023-02-11T05:52:49.119Z,149396.06
2023-02-11T05:55:15.429Z,149416.16
2023-02-11T05:57:41.245Z,149402.31
2023-02-11T06:00:07.953Z,149380.94
2023-02-11T06:02:33.940Z,149390.97
2023-02-11T06:04:59.743Z,149390.97
2023-02-11T06:07:25.512Z,149399.81
2023-02-11T06:09:51.333Z,149396.06
2023-02-11T06:12:17.138Z,149426.22
2023-02-11T06:14:43.085Z,149419.94
2023-02-11T06:17:08.894Z,149417.44
2023-02-11T06:19:34.735Z,149440.06
2023-02-11T06:22:00.556Z,149409.84
2023-02-11T06:24:48.167Z,149426.22
2023-02-11T06:27:12.575Z,149407.34
2023-02-11T06:29:38.437Z,149431.28
2023-02-11T06:32:04.586Z,149446.34
2023-02-11T06:34:30.520Z,149421.19
2023-02-11T06:36:56.389Z,149407.34
2023-02-11T06:39:22.138Z,149407.34
2023-02-11T06:41:48.290Z,149435.03
2023-02-11T06:44:14.025Z,149426.22
2023-02-11T06:46:39.853Z,149421.19
2023-02-11T06:49:05.674Z,149416.16
2023-02-11T06:51:31.411Z,149432.53
2023-02-11T06:53:57.249Z,149477.78
2023-02-11T06:56:26.592Z,149462.69
2023-02-11T06:58:54.794Z,149433.78
2023-02-11T07:01:21.697Z,149432.53
2023-02-11T07:03:47.591Z,149442.56
2023-02-11T07:06:16.950Z,149441.31
2023-02-11T07:08:45.082Z,149466.50
2023-02-11T07:11:13.800Z,149447.59
2023-02-11T07:13:39.798Z,149463.94
2023-02-11T07:16:07.619Z,149470.28
2023-02-11T07:18:33.756Z,149440.06
2023-02-11T07:21:04.429Z,149438.81
2023-02-11T07:23:30.235Z,149463.94
2023-02-11T07:25:56.084Z,149466.50
2023-02-11T07:28:22.001Z,149469.00
2023-02-11T07:30:47.879Z,149485.38
2023-02-11T07:33:13.730Z,149458.94
2023-02-11T07:35:42.311Z,149476.53
2023-02-11T07:38:08.489Z,149508.00
2023-02-11T07:40:34.248Z,149505.50
2023-02-11T07:43:00.934Z,149491.66
2023-02-11T07:45:26.736Z,149485.38
2023-02-11T07:47:52.580Z,149491.66
2023-02-11T07:50:18.543Z,149481.56
2023-02-11T07:52:44.339Z,149486.63
2023-02-11T07:55:10.823Z,149505.50
2023-02-11T07:57:37.001Z,149485.38
2023-02-11T08:00:04.889Z,149499.19
2023-02-11T08:02:30.712Z,149513.03
2023-02-11T08:04:56.553Z,149506.75
2023-02-11T08:07:22.332Z,149516.81
2023-02-11T08:09:48.534Z,149515.53
2023-02-11T08:12:14.316Z,149534.41
2023-02-11T08:14:40.089Z,149539.47
2023-02-11T08:17:06.028Z,149535.66
2023-02-11T08:19:34.878Z,149524.38
2023-02-11T08:22:01.219Z,149553.28
2023-02-11T08:24:27.230Z,149555.81
2023-02-11T08:26:53.046Z,149533.16
2023-02-11T08:29:18.850Z,149525.63
2023-02-11T08:31:47.436Z,149523.13
2023-02-11T08:34:13.846Z,149542.00
2023-02-11T08:36:41.670Z,149554.56
2023-02-11T08:39:19.283Z,149539.47
2023-02-11T08:41:51.418Z,149531.91
2023-02-11T08:44:18.902Z,149538.22
2023-02-11T08:46:45.164Z,149535.66
2023-02-11T08:49:10.990Z,149533.16
2023-02-11T08:51:37.035Z,149531.91
2023-02-11T08:54:03.276Z,149514.28
2023-02-11T08:56:30.934Z,149554.56
2023-02-11T08:58:56.843Z,149558.38
2023-02-11T09:01:25.967Z,149533.16
2023-02-11T09:03:52.718Z,149553.28
2023-02-11T09:06:20.078Z,149558.38
2023-02-11T09:08:48.777Z,149557.09
2023-02-11T09:11:15.588Z,149538.22
2023-02-11T09:13:43.171Z,149554.56
2023-02-11T09:16:16.900Z,149579.75
2023-02-11T09:18:43.684Z,149547.03
2023-02-11T09:21:09.662Z,149586.03
2023-02-11T09:23:36.429Z,149582.25
2023-02-11T09:26:09.213Z,149592.34
2023-02-11T09:28:36.131Z,149591.06
2023-02-11T09:31:10.963Z,149599.88
2023-02-11T09:33:38.650Z,149617.50
2023-02-11T09:36:05.845Z,149615.00
2023-02-11T09:38:32.314Z,149616.25
2023-02-11T09:40:58.512Z,149609.97
2023-02-11T09:43:34.850Z,149604.91
2023-02-11T09:46:00.994Z,149592.34
2023-02-11T09:48:39.347Z,149621.28
2023-02-11T09:51:06.518Z,149612.50
2023-02-11T09:53:40.635Z,149617.50
2023-02-11T09:56:14.649Z,149613.75
2023-02-11T09:58:42.887Z,149613.75
2023-02-11T10:01:15.732Z,149601.13
2023-02-11T10:03:55.076Z,149599.88
2023-02-11T10:06:38.668Z,149594.88
2023-02-11T10:09:25.906Z,149594.88
2023-02-11T10:12:33.000Z,149611.22
2023-02-11T10:15:15.873Z,149606.16
2023-02-11T10:18:00.984Z,149620.03
2023-02-11T10:20:32.897Z,149627.59
2023-02-11T10:23:02.572Z,149598.63
2023-02-11T10:25:36.055Z,149618.75
2023-02-11T10:28:13.337Z,149609.97
2023-02-11T10:31:00.216Z,149623.78
2023-02-11T10:33:47.044Z,149615.00
2023-02-11T10:36:15.560Z,149594.88
2023-02-11T10:38:42.466Z,149621.28
2023-02-11T10:41:12.792Z,149626.31
2023-02-11T10:43:41.634Z,149612.50
2023-02-11T10:46:21.494Z,149662.81
2023-02-11T10:48:52.030Z,149666.63
2023-02-11T10:51:28.399Z,149691.78
2023-02-11T10:54:03.320Z,149685.50
2023-02-11T10:56:35.072Z,149681.75
2023-02-11T10:59:03.013Z,149679.19
2023-02-11T11:01:42.683Z,149679.19
2023-02-11T11:04:33.555Z,149713.19
2023-02-11T11:07:24.790Z,149667.88
2023-02-11T11:10:02.123Z,149656.53
2023-02-11T11:12:32.136Z,149685.50
2023-02-11T11:15:21.008Z,149664.09
2023-02-11T11:18:20.915Z,149665.38
2023-02-11T11:21:06.844Z,149683.00
2023-02-11T11:23:36.477Z,149716.94
2023-02-11T11:26:08.726Z,149690.53
2023-02-11T11:28:49.402Z,149703.13
2023-02-11T11:31:19.348Z,149686.75
2023-02-11T11:33:47.103Z,149699.38
2023-02-11T11:36:19.218Z,149691.78
2023-02-11T11:38:56.796Z,149709.41
2023-02-11T11:41:31.992Z,149686.75
2023-02-11T11:43:59.005Z,149695.56
2023-02-11T11:46:29.851Z,149724.53
2023-02-11T11:49:02.732Z,149740.91
2023-02-11T11:51:29.201Z,149748.44
2023-02-11T11:54:03.578Z,149756.03
2023-02-11T11:56:33.004Z,149732.06
2023-02-11T11:59:19.682Z,149708.16
2023-02-11T12:02:10.089Z,149716.94
2023-02-11T12:05:00.119Z,149729.56
2023-02-11T12:07:50.300Z,149744.69
2023-02-11T12:10:33.557Z,149759.78
2023-02-11T12:12:59.286Z,149742.16
2023-02-11T12:15:39.898Z,149735.88
2023-02-11T12:18:32.168Z,149758.53
2023-02-11T12:21:19.367Z,149753.50
2023-02-11T12:23:48.032Z,149778.69
2023-02-11T12:26:20.206Z,149768.59
2023-02-11T12:29:20.897Z,149776.19
2023-02-11T12:31:52.455Z,149790.03
2023-02-11T12:34:29.897Z,149787.47
2023-02-11T12:37:16.828Z,149764.81
2023-02-11T12:39:54.905Z,149753.50
2023-02-11T12:43:08.565Z,149753.50
2023-02-11T12:45:40.591Z,149762.31
2023-02-11T12:48:35.393Z,149788.78
2023-02-11T12:51:26.531Z,149776.19
2023-02-11T12:54:29.741Z,149801.34
2023-02-11T12:57:20.725Z,149782.44
2023-02-11T13:00:02.323Z,149738.41
2023-02-11T13:02:59.089Z,149745.94
2023-02-11T13:05:46.036Z,149730.81
2023-02-11T13:08:20.618Z,149772.41
2023-02-11T13:10:50.217Z,149758.53
2023-02-11T13:13:22.052Z,149782.44
2023-02-11T13:16:09.685Z,149776.19
2023-02-11T13:18:55.083Z,149800.09
2023-02-11T13:21:48.045Z,149795.06
2023-02-11T13:24:16.846Z,149790.03
2023-02-11T13:26:58.862Z,149802.59
2023-02-11T13:29:48.492Z,149753.50
2023-02-11T13:32:15.483Z,149758.53
2023-02-11T13:34:41.739Z,149781.19
2023-02-11T13:37:26.265Z,149808.94
2023-02-11T13:40:02.755Z,149829.09
2023-02-11T13:42:30.421Z,149791.28
2023-02-11T13:44:57.329Z,149818.97
2023-02-11T13:47:36.111Z,149821.50
2023-02-11T13:50:06.058Z,149800.09
2023-02-11T13:52:38.379Z,149808.94
2023-02-11T13:55:21.725Z,149800.09
2023-02-11T13:58:11.237Z,149810.19
2023-02-11T14:00:37.404Z,149831.59
2023-02-11T14:03:33.811Z,149820.22
2023-02-11T14:06:34.346Z,149813.97
2023-02-11T14:09:09.507Z,149836.63
2023-02-11T14:11:54.568Z,149835.34
2023-02-11T14:14:27.758Z,149836.63
2023-02-11T14:17:00.257Z,149861.84
2023-02-11T14:19:52.740Z,149841.66
2023-02-11T14:22:25.255Z,149841.66
2023-02-11T14:24:51.070Z,149853.00
2023-02-11T14:27:24.028Z,149865.63
2023-02-11T14:30:02.019Z,149839.13
2023-02-11T14:32:47.477Z,149861.84
2023-02-11T14:35:40.559Z,149844.22
2023-02-11T14:38:14.483Z,149853.00
2023-02-11T14:40:52.074Z,149847.97
2023-02-11T14:43:22.962Z,149846.72
2023-02-11T14:45:55.192Z,149866.88
2023-02-11T14:48:36.384Z,149851.75
2023-02-11T14:51:14.418Z,149865.63
2023-02-11T14:53:48.373Z,149863.09
2023-02-11T14:56:20.948Z,149863.09
2023-02-11T14:58:48.878Z,149864.34
2023-02-11T15:01:26.326Z,149878.19
2023-02-11T15:03:55.707Z,149880.75
2023-02-11T15:06:35.983Z,149868.13
2023-02-11T15:09:07.224Z,149876.91
2023-02-11T15:11:38.824Z,149878.19
2023-02-11T15:14:21.654Z,149874.41
2023-02-11T15:16:48.800Z,149864.34
2023-02-11T15:19:26.060Z,149874.41
2023-02-11T15:21:52.956Z,149897.13
2023-02-11T15:24:29.155Z,149856.75
2023-02-11T15:27:07.463Z,149864.34
2023-02-11T15:29:40.569Z,149893.31
2023-02-11T15:32:14.184Z,149865.63
2023-02-11T15:34:40.616Z,149856.75
2023-02-11T15:37:06.843Z,149856.75
2023-02-11T15:39:37.830Z,149860.59
2023-02-11T15:42:20.459Z,149893.31
2023-02-11T15:44:52.282Z,149882.00
2023-02-11T15:47:21.702Z,149884.50
2023-02-11T15:49:48.265Z,149893.31
2023-02-11T15:52:23.158Z,149884.50
2023-02-11T15:54:49.342Z,149900.88
2023-02-11T15:57:17.115Z,149897.13
2023-02-11T15:59:52.503Z,149903.41
2023-02-11T16:02:32.021Z,149875.66
2023-02-11T16:05:08.808Z,149884.50
2023-02-11T16:07:37.318Z,149882.00
2023-02-11T16:10:03.638Z,149855.50
2023-02-11T16:12:29.512Z,149882.00
2023-02-11T16:14:58.967Z,149873.16
2023-02-11T16:17:28.722Z,149863.09
2023-02-11T16:19:55.300Z,149853.00
2023-02-11T16:22:26.807Z,149839.13
2023-02-11T16:24:56.486Z,149860.59
2023-02-11T16:27:29.767Z,149859.28
2023-02-11T16:29:57.129Z,149870.63
2023-02-11T16:32:25.784Z,149878.19
2023-02-11T16:34:54.475Z,149890.78
2023-02-11T16:37:20.564Z,149878.19
2023-02-11T16:39:46.628Z,149883.25
2023-02-11T16:42:12.464Z,149868.13
2023-02-11T16:44:38.766Z,149860.59
2023-02-11T16:47:14.190Z,149871.91
2023-02-11T16:49:41.875Z,149870.63
2023-02-11T16:52:13.167Z,149870.63
2023-02-11T16:54:39.152Z,149894.56
2023-02-11T16:57:13.146Z,149884.50
2023-02-11T16:59:39.001Z,149831.59
2023-02-11T17:05:55.420Z,149841.66
2023-02-11T17:08:27.577Z,149835.34
2023-02-11T17:10:56.084Z,149842.94
2023-02-11T17:13:23.370Z,149850.47
2023-02-11T17:15:49.284Z,149863.09
2023-02-11T17:18:15.233Z,149870.63
2023-02-11T17:20:41.187Z,149858.03
2023-02-11T17:23:07.232Z,149841.66
2023-02-11T17:25:36.607Z,149832.84
2023-02-11T17:28:04.885Z,149830.34
2023-02-11T17:30:30.891Z,149829.09
2023-02-11T17:32:56.699Z,149822.75
2023-02-11T17:35:22.710Z,149815.22
2023-02-11T17:37:48.837Z,149847.97
2023-02-11T17:40:15.375Z,149858.03
2023-02-11T17:42:44.702Z,149870.63
2023-02-11T17:45:12.332Z,149865.63
2023-02-11T17:47:38.474Z,149879.47
2023-02-11T17:50:05.280Z,149879.47
2023-02-11T17:52:31.278Z,149871.91
2023-02-11T17:54:57.473Z,149889.53
2023-02-11T17:57:23.442Z,149878.19
2023-02-11T17:59:49.644Z,149885.75
2023-02-11T18:02:16.039Z,149863.09
2023-02-11T18:04:42.358Z,149856.75
2023-02-11T18:07:08.651Z,149869.38
2023-02-11T18:09:39.814Z,149882.00
2023-02-11T18:12:07.579Z,149856.75
2023-02-11T18:14:36.521Z,149874.41
2023-02-11T18:17:02.698Z,149873.16
2023-02-11T18:19:34.647Z,149892.03
2023-02-11T18:22:01.251Z,149876.91
2023-02-11T18:24:27.255Z,149882.00
2023-02-11T18:26:53.317Z,149898.38
2023-02-11T18:29:19.492Z,149861.84
2023-02-11T18:31:45.595Z,149845.47
2023-02-11T18:34:12.128Z,149844.22
2023-02-11T18:36:38.872Z,149839.13
2023-02-11T18:39:05.683Z,149858.03
2023-02-11T18:41:31.865Z,149844.22
2023-02-11T18:43:58.367Z,149858.03
2023-02-11T18:46:24.549Z,149868.13
2023-02-11T18:48:54.335Z,149850.47
2023-02-11T18:51:22.579Z,149849.22
2023-02-11T18:53:48.668Z,149885.75
2023-02-11T18:56:18.072Z,149874.41
2023-02-11T18:58:44.423Z,149860.59
2023-02-11T19:01:16.413Z,149874.41
2023-02-11T19:03:43.188Z,149882.00
2023-02-11T19:06:17.206Z,149897.13
2023-02-11T19:08:43.437Z,149845.47
2023-02-11T19:11:09.524Z,149865.63
2023-02-11T19:13:35.397Z,149859.28
2023-02-11T19:16:05.607Z,149837.88
2023-02-11T19:18:33.981Z,149856.75
2023-02-11T19:21:11.204Z,149849.22
2023-02-11T19:23:38.181Z,149856.75
2023-02-11T19:26:05.840Z,149858.03
2023-02-11T19:28:32.580Z,149863.09
2023-02-11T19:31:06.026Z,149869.38
2023-02-11T19:33:32.055Z,149893.31
2023-02-11T19:36:02.798Z,149864.34
2023-02-11T19:38:28.647Z,149859.28
2023-02-11T19:40:55.704Z,149865.63
2023-02-11T19:43:21.847Z,149870.63
2023-02-11T19:45:47.749Z,149864.34
2023-02-11T19:48:13.665Z,149882.00
2023-02-11T19:50:39.532Z,149897.13
2023-02-11T19:53:05.286Z,149885.75
2023-02-11T19:55:34.055Z,149894.56
2023-02-11T19:57:59.827Z,149888.28
2023-02-11T20:00:25.829Z,149887.03
2023-02-11T20:02:51.825Z,149889.53
2023-02-11T20:05:17.943Z,149870.63
2023-02-11T20:07:43.811Z,149883.25
2023-02-11T20:10:09.836Z,149864.34
2023-02-11T20:12:36.824Z,149858.03
2023-02-11T20:15:03.840Z,149880.75
2023-02-11T20:17:29.675Z,149869.38
2023-02-11T20:19:55.551Z,149893.31
2023-02-11T20:22:21.373Z,149899.63
2023-02-11T20:24:47.373Z,149870.63
2023-02-11T20:27:13.268Z,149899.63
2023-02-11T20:29:39.512Z,149904.66
2023-02-11T20:32:06.610Z,149909.69
2023-02-11T20:34:33.703Z,149897.13
2023-02-11T20:36:59.867Z,149898.38
2023-02-11T20:39:26.125Z,149902.16
2023-02-11T20:41:53.149Z,149904.66
2023-02-11T20:44:21.629Z,149900.88
2023-02-11T20:46:48.051Z,149907.19
2023-02-11T20:49:18.115Z,149910.94
2023-02-11T20:51:44.470Z,149905.91
2023-02-11T20:54:15.449Z,149907.19
2023-02-11T20:56:41.829Z,149923.56
2023-02-11T20:59:08.263Z,149916.03
2023-02-11T21:01:37.011Z,149931.09
2023-02-11T21:04:06.410Z,149929.84
2023-02-11T21:06:38.286Z,149942.47
2023-02-11T21:09:05.819Z,149942.47
2023-02-11T21:11:32.046Z,149904.66
2023-02-11T21:13:58.023Z,149879.47
2023-02-11T21:16:24.220Z,149902.16
2023-02-11T21:18:51.451Z,149928.59
2023-02-11T21:21:18.999Z,149916.03
2023-02-11T21:23:45.500Z,149900.88
2023-02-11T21:26:12.098Z,149934.91
2023-02-11T21:28:40.828Z,149931.09
2023-02-11T21:31:07.820Z,149934.91
2023-02-11T21:33:34.069Z,149928.59
2023-02-11T21:36:03.019Z,149902.16
2023-02-11T21:38:29.797Z,149923.56
2023-02-11T21:41:01.576Z,149894.56
2023-02-11T21:43:27.387Z,149900.88
2023-02-11T21:45:54.037Z,149932.41
2023-02-11T21:48:20.265Z,149917.28
2023-02-11T21:50:47.094Z,149923.56
2023-02-11T21:53:13.870Z,149912.19
2023-02-11T21:55:40.595Z,149921.03
2023-02-11T21:58:09.643Z,149918.53
2023-02-11T22:00:36.154Z,149912.19
2023-02-11T22:03:02.261Z,149914.75
2023-02-11T22:05:28.296Z,149907.19
2023-02-11T22:07:54.970Z,149923.56
2023-02-11T22:10:21.166Z,149933.66
2023-02-11T22:12:47.264Z,149929.84
2023-02-11T22:15:13.855Z,149921.03
2023-02-11T22:17:39.944Z,149922.31
2023-02-11T22:20:06.635Z,149927.31
2023-02-11T22:22:32.468Z,149948.75
2023-02-11T22:24:59.701Z,149970.22
2023-02-11T22:27:25.736Z,149944.97
2023-02-11T22:29:52.348Z,149934.91
2023-02-11T22:32:18.715Z,149944.97
2023-02-11T22:34:44.922Z,149943.72
2023-02-11T22:37:11.495Z,149956.34
2023-02-11T22:39:37.414Z,149962.63
2023-02-11T22:42:04.121Z,149951.31
2023-02-11T22:44:29.969Z,149960.09
2023-02-11T22:46:55.946Z,149955.06
2023-02-11T22:49:22.165Z,149962.63
2023-02-11T22:51:49.416Z,149980.25
2023-02-11T22:54:17.437Z,149958.84
2023-02-11T22:56:44.198Z,149966.38
2023-02-11T22:59:14.348Z,149976.50
2023-02-11T23:01:41.298Z,149981.53
2023-02-11T23:04:10.570Z,149986.59
2023-02-11T23:06:37.146Z,149989.09
2023-02-11T23:09:05.059Z,149990.38
2023-02-11T23:11:31.690Z,149990.38
2023-02-11T23:13:57.860Z,150000.41
2023-02-11T23:16:26.741Z,149990.38
2023-02-11T23:18:53.810Z,149977.75
2023-02-11T23:21:22.887Z,150000.41
2023-02-11T23:23:53.157Z,149991.63
2023-02-11T23:26:19.163Z,149996.66
2023-02-11T23:28:46.143Z,150006.75
2023-02-11T23:31:19.807Z,150010.53
2023-02-11T23:33:46.940Z,150015.56
2023-02-11T23:36:15.004Z,150008.00
2023-02-11T23:38:41.171Z,150011.78
2023-02-11T23:41:07.051Z,150009.28
2023-02-11T23:43:33.078Z,150018.06
2023-02-11T23:45:58.921Z,150030.69
2023-02-11T23:48:25.499Z,150030.69
2023-02-11T23:50:51.397Z,150028.19
2023-02-11T23:53:17.361Z,150029.44
2023-02-11T23:55:45.026Z,150030.69
2023-02-11T23:58:12.485Z,150030.69
